Time;durP1;ratioP1;P1;durP2;ratioP2;P2;SDS_P1;SDS_P2;PMS_P1;PMS_P2;Temp;Humidity;BMP_temperature;BMP_pressure;BME280_temperature;BME280_humidity;BME280_pressure;Samples;Min_cycle;Max_cycle;Signal;HPM_P1;HPM_P2
2023/05/22 00:00:43;;;;;;;;;;;;;;;27.22;43.70;93972.53;5042843;28;9339;-66
2023/05/22 00:03:09;;;;;;;;;;;;;;;27.22;43.76;93969.78;5046755;28;7030;-65
2023/05/22 00:05:52;;;;;;;;;;;;;;;27.22;43.76;93967.75;5035539;28;8896;-65
2023/05/22 00:08:53;;;;;;;;;;;;;;;27.21;43.71;93968.28;5030351;28;9105;-65
2023/05/22 00:12:13;;;;;;;;;;;;;;;27.21;43.60;93971.06;5011771;28;8765;-65
2023/05/22 00:15:31;;;;;;;;;;;;;;;27.22;43.60;93967.00;4915189;29;9539;-65
2023/05/22 00:18:48;;;;;;;;;;;;;;;27.20;43.61;93964.78;4911546;29;9219;-65
2023/05/22 00:21:15;;;;;;;;;;;;;;;27.19;43.84;93968.81;4880973;29;7059;-65
2023/05/22 00:23:42;;;;;;;;;;;;;;;27.18;43.73;93972.09;4896630;29;9036;-65
2023/05/22 00:26:37;;;;;;;;;;;;;;;27.17;43.72;93974.13;4893563;29;7058;-65
2023/05/22 00:29:22;;;;;;;;;;;;;;;27.18;44.04;93972.09;4865166;29;8255;-65
2023/05/22 00:31:49;;;;;;;;;;;;;;;27.17;43.78;93976.88;4845910;29;8695;-65
2023/05/22 00:34:49;;;;;;;;;;;;;;;27.17;43.57;93970.59;4854161;29;7280;-65
2023/05/22 00:37:26;;;;;;;;;;;;;;;27.11;43.70;93965.22;4820852;29;8719;-65
2023/05/22 00:40:21;;;;;;;;;;;;;;;27.14;43.63;93974.44;5064225;28;6717;-63
2023/05/22 00:43:20;;;;;;;;;;;;;;;27.14;43.74;93979.97;5040784;28;9045;-63
2023/05/22 00:45:47;;;;;;;;;;;;;;;27.15;43.67;93979.44;5037510;28;7182;-64
2023/05/22 00:48:22;;;;;;;;;;;;;;;27.13;44.05;93976.47;5039140;28;8327;-63
2023/05/22 00:51:08;;;;;;;;;;;;;;;27.11;43.75;93973.50;5039132;28;7246;-63
2023/05/22 00:53:56;;;;;;;;;;;;;;;27.11;44.06;93978.25;5041485;28;7456;-63
2023/05/22 00:56:27;;;;;;;;;;;;;;;27.11;43.33;93981.78;5040924;28;7331;-63
2023/05/22 00:59:14;;;;;;;;;;;;;;;27.12;43.80;93982.53;5049840;28;9182;-63
2023/05/22 01:01:50;;;;;;;;;;;;;;;27.08;43.91;93984.84;5053244;28;7346;-63
2023/05/22 01:04:36;;;;;;;;;;;;;;;27.10;43.69;93991.31;5056887;28;8054;-63
2023/05/22 01:07:04;;;;;;;;;;;;;;;27.10;43.86;93991.31;5042359;28;9088;-63
2023/05/22 01:09:52;;;;;;;;;;;;;;;27.09;43.59;93981.56;5039766;28;7069;-63
2023/05/22 01:12:35;;;;;;;;;;;;;;;27.12;43.98;93993.56;5042272;28;7249;-63
2023/05/22 01:15:31;;;;;;;;;;;;;;;27.10;43.61;93994.06;5038428;28;9162;-63
2023/05/22 01:18:28;;;;;;;;;;;;;;;27.10;43.67;93994.06;5037170;28;7224;-63
2023/05/22 01:21:09;;;;;;;;;;;;;;;27.08;43.62;93979.34;5007930;28;7486;-63
2023/05/22 01:24:14;;;;;;;;;;;;;;;27.10;43.59;93994.06;5025710;28;7954;-63
2023/05/22 01:27:33;;;;;;;;;;;;;;;27.10;43.57;93988.56;5025562;28;9029;-63
2023/05/22 01:33:53;;;;;;;;;;;;;;;27.08;43.86;93993.88;4963630;28;7310;-63
2023/05/22 01:36:57;;;;;;;;;;;;;;;27.07;43.67;93984.09;4937309;28;9424;-63
2023/05/22 01:39:45;;;;;;;;;;;;;;;27.07;43.44;93984.09;4948402;28;7420;-63
2023/05/22 01:42:23;;;;;;;;;;;;;;;27.06;44.13;93984.63;4946113;28;7327;-63
2023/05/22 01:45:04;;;;;;;;;;;;;;;27.06;43.65;93985.38;4959853;28;9394;-63
2023/05/22 01:47:32;;;;;;;;;;;;;;;27.05;43.80;93981.13;4948216;28;9470;-63
2023/05/22 01:50:04;;;;;;;;;;;;;;;27.03;43.55;93986.44;4952857;28;9095;-63
2023/05/22 01:52:59;;;;;;;;;;;;;;;27.05;43.47;93985.91;4939235;28;7217;-63
2023/05/22 01:55:41;;;;;;;;;;;;;;;27.04;43.80;93978.88;4945039;28;6869;-63
2023/05/22 01:58:25;;;;;;;;;;;;;;;27.06;43.65;93977.09;4940995;28;7056;-63
2023/05/22 02:01:28;;;;;;;;;;;;;;;27.06;43.68;93981.84;4953673;28;9295;-63
2023/05/22 02:04:25;;;;;;;;;;;;;;;27.06;43.37;93984.63;4930650;28;8422;-63
2023/05/22 02:06:58;;;;;;;;;;;;;;;27.04;43.66;93973.38;4927932;29;7339;-63
2023/05/22 02:09:32;;;;;;;;;;;;;;;27.05;43.74;93983.16;4909436;29;7023;-63
2023/05/22 02:12:08;;;;;;;;;;;;;;;27.05;43.61;93980.38;4982328;28;9197;-63
2023/05/22 02:14:43;;;;;;;;;;;;;;;27.04;43.86;93982.41;4998160;28;9168;-63
2023/05/22 02:17:20;;;;;;;;;;;;;;;27.03;43.97;93989.22;4987327;28;9186;-63
2023/05/22 02:19:46;;;;;;;;;;;;;;;27.04;43.33;93981.66;5006426;28;7057;-63
2023/05/22 02:22:48;;;;;;;;;;;;;;;27.03;43.78;93978.16;5007820;28;9144;-63
2023/05/22 02:25:16;;;;;;;;;;;;;;;27.02;43.64;93979.44;4990340;28;8996;-63
2023/05/22 02:27:51;;;;;;;;;;;;;;;27.01;44.11;93968.94;4996430;28;7026;-63
2023/05/22 02:30:41;;;;;;;;;;;;;;;27.03;43.65;93971.91;4981708;28;7356;-64
2023/05/22 02:33:08;;;;;;;;;;;;;;;27.01;43.72;93968.94;4983158;28;9151;-64
2023/05/22 02:35:37;;;;;;;;;;;;;;;27.00;43.88;93965.41;4991102;28;7764;-64
2023/05/22 02:38:05;;;;;;;;;;;;;;;27.00;44.30;93973.69;4982417;28;7303;-64
2023/05/22 02:40:39;;;;;;;;;;;;;;;27.01;43.79;93974.44;5017461;28;9098;-64
2023/05/22 02:43:13;;;;;;;;;;;;;;;27.01;43.82;93969.69;5035817;28;7228;-63
2023/05/22 02:45:45;;;;;;;;;;;;;;;27.00;43.81;93965.41;5030308;28;9096;-63
2023/05/22 02:48:45;;;;;;;;;;;;;;;27.00;43.69;93968.19;5023544;28;8842;-63
2023/05/22 02:51:20;;;;;;;;;;;;;;;27.00;43.90;93956.38;5031799;28;8614;-63
2023/05/22 02:54:02;;;;;;;;;;;;;;;26.99;43.22;93966.69;5058789;28;9378;-63
2023/05/22 02:56:31;;;;;;;;;;;;;;;26.99;43.89;93965.94;5023377;28;7050;-64
2023/05/22 02:59:04;;;;;;;;;;;;;;;26.99;43.81;93961.16;5034673;28;7167;-64
2023/05/22 03:01:31;;;;;;;;;;;;;;;26.95;43.76;93955.22;5025983;28;7226;-64
2023/05/22 03:04:18;;;;;;;;;;;;;;;26.96;43.77;93962.22;5023626;28;7105;-64
2023/05/22 03:06:50;;;;;;;;;;;;;;;26.98;44.02;93959.69;5054732;28;9098;-63
2023/05/22 03:09:19;;;;;;;;;;;;;;;26.98;43.78;93961.69;5018991;28;8929;-63
2023/05/22 03:11:46;;;;;;;;;;;;;;;26.97;43.67;93954.69;5024254;28;7310;-63
2023/05/22 03:14:32;;;;;;;;;;;;;;;26.97;43.48;93957.47;5018714;28;8708;-63
2023/05/22 03:17:00;;;;;;;;;;;;;;;26.96;43.93;93959.47;5037356;28;7248;-63
2023/05/22 03:19:27;;;;;;;;;;;;;;;26.97;43.69;93958.19;5022274;28;8999;-63
2023/05/22 03:22:19;;;;;;;;;;;;;;;26.96;43.60;93962.22;5024319;28;8988;-63
2023/05/22 03:24:47;;;;;;;;;;;;;;;26.96;43.56;93962.22;5016554;28;9066;-63
2023/05/22 03:27:26;;;;;;;;;;;;;;;26.96;43.71;93956.72;5021456;28;9148;-55
2023/05/22 03:30:04;;;;;;;;;;;;;;;26.94;43.69;93956.50;5015421;28;7031;-55
2023/05/22 03:32:44;;;;;;;;;;;;;;;26.95;43.53;93960.72;5031592;28;9368;-55
2023/05/22 03:35:18;;;;;;;;;;;;;;;26.92;43.73;93950.78;5024063;28;9044;-56
2023/05/22 03:37:57;;;;;;;;;;;;;;;26.92;43.90;93954.25;5021332;28;7264;-55
2023/05/22 03:40:36;;;;;;;;;;;;;;;26.91;43.64;93954.78;5023928;28;9087;-55
2023/05/22 03:43:02;;;;;;;;;;;;;;;26.92;43.79;93954.25;5017524;28;9602;-55
2023/05/22 03:45:39;;;;;;;;;;;;;;;26.92;43.42;93950.03;5017040;28;7019;-55
2023/05/22 03:48:17;;;;;;;;;;;;;;;26.90;44.02;93954.03;5051704;28;7589;-55
2023/05/22 03:50:57;;;;;;;;;;;;;;;26.92;43.64;93956.28;5020971;28;7263;-56
2023/05/22 03:53:23;;;;;;;;;;;;;;;26.92;43.88;93963.81;5024808;28;7185;-55
2023/05/22 03:55:49;;;;;;;;;;;;;;;26.90;43.28;93958.84;5028474;28;7244;-56
2023/05/22 03:58:46;;;;;;;;;;;;;;;26.92;43.67;93963.81;5059465;28;8456;-56
2023/05/22 04:01:32;;;;;;;;;;;;;;;26.90;43.68;93961.59;5054322;28;7286;-55
2023/05/22 04:04:04;;;;;;;;;;;;;;;26.90;43.67;93964.34;5041855;28;7059;-56
2023/05/22 04:06:50;;;;;;;;;;;;;;;26.88;43.64;93962.09;5020112;28;9069;-55
2023/05/22 04:09:51;;;;;;;;;;;;;;;26.89;43.72;93968.38;5039056;28;9070;-55
2023/05/22 04:12:17;;;;;;;;;;;;;;;26.88;43.78;93969.66;4998985;28;8836;-55
2023/05/22 04:14:45;;;;;;;;;;;;;;;26.87;43.91;93968.91;4997928;28;7028;-56
2023/05/22 04:17:19;;;;;;;;;;;;;;;26.86;43.79;93972.22;5023520;28;7244;-55
2023/05/22 04:19:45;;;;;;;;;;;;;;;26.87;43.98;93982.72;4988231;28;7149;-55
2023/05/22 04:22:13;;;;;;;;;;;;;;;26.87;44.36;93979.19;4983764;28;7174;-55
2023/05/22 04:24:50;;;;;;;;;;;;;;;26.86;43.34;93977.72;4990613;28;7149;-55
2023/05/22 04:27:28;;;;;;;;;;;;;;;26.87;43.30;93982.72;5013873;28;7036;-55
2023/05/22 04:30:25;;;;;;;;;;;;;;;26.89;43.43;93984.94;5002476;28;8730;-55
2023/05/22 04:33:33;;;;;;;;;;;;;;;26.88;43.98;93994.50;4950133;28;9432;-55
2023/05/22 04:36:08;;;;;;;;;;;;;;;26.88;44.42;93989.69;4890773;29;7241;-55
2023/05/22 04:38:37;;;;;;;;;;;;;;;26.86;43.69;93995.00;4886878;29;7284;-55
2023/05/22 04:41:03;;;;;;;;;;;;;;;26.88;43.73;93994.50;4869850;29;8961;-55
2023/05/22 04:43:31;;;;;;;;;;;;;;;26.90;44.03;93989.19;4887959;29;7363;-55
2023/05/22 04:45:57;;;;;;;;;;;;;;;26.92;43.71;93992.16;4870501;29;9001;-56
2023/05/22 04:48:23;;;;;;;;;;;;;;;26.92;44.20;94003.22;4900037;29;9057;-55
2023/05/22 04:51:22;;;;;;;;;;;;;;;26.90;44.00;94000.94;4892454;29;7264;-55
2023/05/22 04:53:50;;;;;;;;;;;;;;;26.88;43.67;93997.97;4824554;29;7199;-55
2023/05/22 04:56:23;;;;;;;;;;;;;;;26.87;43.92;94002.03;4837626;29;7023;-55
2023/05/22 04:59:22;;;;;;;;;;;;;;;26.88;43.74;94000.03;4828220;29;9102;-56
2023/05/22 05:02:08;;;;;;;;;;;;;;;26.88;43.91;94005.53;4812419;29;9445;-55
2023/05/22 05:04:43;;;;;;;;;;;;;;;26.87;44.04;93999.28;4792376;29;8857;-55
2023/05/22 05:07:39;;;;;;;;;;;;;;;26.88;43.83;94000.75;4829090;29;9447;-55
2023/05/22 05:10:06;;;;;;;;;;;;;;;26.88;44.30;94000.75;4792410;29;9122;-55
2023/05/22 05:12:33;;;;;;;;;;;;;;;26.87;44.01;94004.78;4789869;29;8645;-56
2023/05/22 05:14:59;;;;;;;;;;;;;;;26.86;43.83;94006.03;4778465;29;7486;-55
2023/05/22 05:17:25;;;;;;;;;;;;;;;26.86;43.84;94010.84;4794547;29;7091;-56
2023/05/22 05:19:51;;;;;;;;;;;;;;;26.87;44.04;94006.81;4792865;29;9051;-56
2023/05/22 05:22:19;;;;;;;;;;;;;;;26.88;44.25;94002.78;4807216;29;8906;-56
2023/05/22 05:24:52;;;;;;;;;;;;;;;26.85;43.67;94001.81;4785455;29;9051;-56
2023/05/22 05:27:33;;;;;;;;;;;;;;;26.85;44.07;93998.31;4785363;29;7023;-56
2023/05/22 05:30:09;;;;;;;;;;;;;;;26.87;44.18;94004.03;4824950;29;7053;-56
2023/05/22 05:32:46;;;;;;;;;;;;;;;26.87;43.81;93998.53;4857394;29;7072;-56
2023/05/22 05:35:45;;;;;;;;;;;;;;;26.85;43.98;94001.06;4867230;29;9247;-56
2023/05/22 05:38:26;;;;;;;;;;;;;;;26.83;44.18;93995.34;4885651;29;9006;-56
2023/05/22 05:41:02;;;;;;;;;;;;;;;26.87;44.05;94004.03;4929308;29;7263;-55
2023/05/22 05:43:51;;;;;;;;;;;;;;;26.87;44.09;94009.56;4914209;29;7340;-55
2023/05/22 05:46:18;;;;;;;;;;;;;;;26.88;44.00;94006.25;4962413;28;9602;-55
2023/05/22 05:48:57;;;;;;;;;;;;;;;26.86;44.58;94008.81;5030190;28;9332;-56
2023/05/22 05:51:43;;;;;;;;;;;;;;;26.87;44.52;94001.28;5021259;28;7054;-55
2023/05/22 05:54:20;;;;;;;;;;;;;;;26.91;44.60;94007.22;5034640;28;7459;-55
2023/05/22 05:57:07;;;;;;;;;;;;;;;26.93;44.32;94012.97;5039006;28;7032;-56
2023/05/22 06:00:10;;;;;;;;;;;;;;;26.92;44.19;94014.25;5022513;28;7288;-56
2023/05/22 06:02:39;;;;;;;;;;;;;;;26.92;43.96;94010.72;5012021;28;9064;-56
2023/05/22 06:05:05;;;;;;;;;;;;;;;26.92;44.04;94017.00;4997821;28;7305;-56
2023/05/22 06:07:48;;;;;;;;;;;;;;;26.92;44.10;94022.53;4997447;28;7268;-56
2023/05/22 06:10:28;;;;;;;;;;;;;;;26.93;44.12;94024.00;5006468;28;9309;-56
2023/05/22 06:13:08;;;;;;;;;;;;;;;26.93;44.42;94024.00;5008440;28;9076;-56
2023/05/22 06:16:05;;;;;;;;;;;;;;;26.92;44.17;94028.75;4991291;28;6989;-55
2023/05/22 06:18:56;;;;;;;;;;;;;;;26.93;44.12;94029.53;5007074;28;7224;-56
2023/05/22 06:21:42;;;;;;;;;;;;;;;26.92;44.12;94027.28;5003870;28;9328;-56
2023/05/22 06:24:17;;;;;;;;;;;;;;;26.88;44.08;94028.34;5010506;28;7246;-56
2023/05/22 06:27:04;;;;;;;;;;;;;;;26.87;44.32;94032.38;4989986;28;7518;-56
2023/05/22 06:29:51;;;;;;;;;;;;;;;26.88;43.90;94030.38;4993831;28;9197;-55
2023/05/22 06:32:33;;;;;;;;;;;;;;;26.88;43.63;94033.13;5006123;28;7208;-55
2023/05/22 06:35:19;;;;;;;;;;;;;;;26.88;43.67;94033.13;4988430;28;7638;-56
2023/05/22 06:37:45;;;;;;;;;;;;;;;26.86;43.15;94032.91;5015233;28;6856;-55
2023/05/22 06:40:14;;;;;;;;;;;;;;;26.82;43.40;94022.19;5021143;28;7280;-55
2023/05/22 06:42:48;;;;;;;;;;;;;;;26.86;43.57;94017.09;5021235;28;8630;-55
2023/05/22 06:45:23;;;;;;;;;;;;;;;26.85;43.66;94025.91;5054687;28;7158;-55
2023/05/22 06:47:54;;;;;;;;;;;;;;;26.89;43.60;94029.84;5027676;28;8772;-55
2023/05/22 06:54:05;;;;;;;;;;;;;;;26.92;43.75;94030.81;5027237;28;8001;-55
2023/05/22 06:56:41;;;;;;;;;;;;;;;26.91;43.60;94026.53;5030258;28;7037;-55
2023/05/22 06:59:12;;;;;;;;;;;;;;;26.93;43.58;94029.53;5022494;28;6997;-56
2023/05/22 07:01:38;;;;;;;;;;;;;;;27.00;47.57;94036.44;5023691;28;7249;-56
2023/05/22 07:04:07;;;;;;;;;;;;;;;27.04;45.85;94031.34;5020843;28;9155;-56
2023/05/22 07:06:44;;;;;;;;;;;;;;;27.05;45.83;94028.06;5057036;28;9351;-55
2023/05/22 07:09:13;;;;;;;;;;;;;;;27.05;44.53;94030.81;5025886;28;8908;-55
2023/05/22 07:11:43;;;;;;;;;;;;;;;27.01;44.16;94030.41;5050113;28;9093;-56
2023/05/22 07:14:43;;;;;;;;;;;;;;;27.06;43.92;94037.81;5024394;28;9136;-55
2023/05/22 07:17:43;;;;;;;;;;;;;;;27.04;44.36;94040.38;5009823;28;7439;-56
2023/05/22 07:20:14;;;;;;;;;;;;;;;27.06;43.80;94035.06;5004874;28;7271;-56
2023/05/22 07:22:52;;;;;;;;;;;;;;;27.07;43.39;94033.78;5040369;28;7544;-55
2023/05/22 07:25:44;;;;;;;;;;;;;;;27.08;43.12;94035.28;5022493;28;9419;-56
2023/05/22 07:28:10;;;;;;;;;;;;;;;27.08;43.32;94032.50;5001601;28;7287;-56
2023/05/22 07:31:06;;;;;;;;;;;;;;;27.09;43.05;94036.78;5019579;28;7504;-56
2023/05/22 07:33:32;;;;;;;;;;;;;;;27.10;42.69;94035.47;4968880;28;9038;-56
2023/05/22 07:36:14;;;;;;;;;;;;;;;27.10;42.45;94043.03;4965976;28;7007;-55
2023/05/22 07:38:40;;;;;;;;;;;;;;;27.07;42.60;94035.81;4951938;28;7049;-56
2023/05/22 07:41:13;;;;;;;;;;;;;;;27.06;42.17;94026.03;4966327;28;9229;-56
2023/05/22 07:43:57;;;;;;;;;;;;;;;27.09;42.06;94036.78;4964357;28;7131;-56
2023/05/22 07:46:36;;;;;;;;;;;;;;;27.08;42.06;94034.56;4961367;28;7608;-56
2023/05/22 07:49:18;;;;;;;;;;;;;;;27.07;41.53;94033.78;4968822;28;7132;-56
2023/05/22 07:51:54;;;;;;;;;;;;;;;27.07;41.68;94033.03;4968848;28;8713;-61
2023/05/22 07:54:23;;;;;;;;;;;;;;;27.09;41.67;94034.00;4952246;28;9254;-61
2023/05/22 07:57:02;;;;;;;;;;;;;;;27.09;41.88;94025.72;4984683;28;8894;-60
2023/05/22 07:59:37;;;;;;;;;;;;;;;27.11;41.59;94028.69;4981078;28;9020;-60
2023/05/22 08:02:30;;;;;;;;;;;;;;;27.12;41.82;94029.44;4965749;28;7302;-60
2023/05/22 08:05:00;;;;;;;;;;;;;;;27.11;41.15;94028.69;4965993;28;7124;-60
2023/05/22 08:07:27;;;;;;;;;;;;;;;27.11;40.67;94030.72;4982018;28;7150;-60
2023/05/22 08:09:56;;;;;;;;;;;;;;;27.14;40.99;94024.16;5015075;28;7172;-60
2023/05/22 08:12:25;;;;;;;;;;;;;;;27.15;40.55;94034.66;5048669;28;7027;-60
2023/05/22 08:14:56;;;;;;;;;;;;;;;27.15;40.73;94029.13;5035760;28;7193;-61
2023/05/22 08:17:34;;;;;;;;;;;;;;;27.16;40.60;94027.88;5041566;28;8768;-60
2023/05/22 08:20:01;;;;;;;;;;;;;;;27.16;41.13;94025.09;5032143;28;8919;-60
2023/05/22 08:22:53;;;;;;;;;;;;;;;27.19;40.73;94026.78;5022297;28;7503;-61
2023/05/22 08:25:34;;;;;;;;;;;;;;;27.20;40.98;94025.53;5022489;28;7367;-61
2023/05/22 08:28:15;;;;;;;;;;;;;;;27.18;40.95;94028.06;5024402;28;7038;-60
2023/05/22 08:30:45;;;;;;;;;;;;;;;27.20;41.05;94031.06;5023363;28;7061;-60
2023/05/22 08:33:15;;;;;;;;;;;;;;;27.16;41.19;94019.59;5022180;28;7026;-60
2023/05/22 08:35:42;;;;;;;;;;;;;;;27.23;41.09;94027.22;5029297;28;9522;-60
2023/05/22 08:38:16;;;;;;;;;;;;;;;27.25;41.22;94026.69;5024802;28;7294;-60
2023/05/22 08:40:49;;;;;;;;;;;;;;;27.21;40.83;94015.97;5020922;28;7090;-60
2023/05/22 08:43:20;;;;;;;;;;;;;;;27.23;41.09;94026.50;5038773;28;7376;-60
2023/05/22 08:46:03;;;;;;;;;;;;;;;27.21;40.89;94021.47;5026312;28;8409;-60
2023/05/22 08:48:34;;;;;;;;;;;;;;;27.16;41.07;94022.34;5021915;28;7363;-60
2023/05/22 08:51:21;;;;;;;;;;;;;;;27.16;41.37;94027.13;5026697;28;7242;-60
2023/05/22 08:53:56;;;;;;;;;;;;;;;27.15;40.74;94023.59;5047858;28;7062;-60
2023/05/22 08:56:25;;;;;;;;;;;;;;;27.15;41.12;94014.56;5018704;28;8712;-60
2023/05/22 08:58:54;;;;;;;;;;;;;;;27.15;41.21;94023.59;5037885;28;7057;-60
2023/05/22 09:01:22;;;;;;;;;;;;;;;27.15;41.00;94020.84;5028235;28;7147;-60
2023/05/22 09:03:53;;;;;;;;;;;;;;;27.16;40.84;94016.81;5043407;28;8195;-60
2023/05/22 09:06:19;;;;;;;;;;;;;;;27.16;40.85;94016.81;5036265;28;7189;-60
2023/05/22 09:08:47;;;;;;;;;;;;;;;27.17;41.37;94014.78;5020188;28;7304;-60
2023/05/22 09:11:18;;;;;;;;;;;;;;;27.18;41.34;94019.03;5022675;28;7048;-60
2023/05/22 09:13:45;;;;;;;;;;;;;;;27.19;41.50;94017.75;5029295;28;7248;-60
2023/05/22 09:16:25;;;;;;;;;;;;;;;27.22;41.35;94016.72;5029174;28;7300;-60
2023/05/22 09:19:00;;;;;;;;;;;;;;;27.23;41.79;94013.41;5027403;28;7043;-60
2023/05/22 09:21:30;;;;;;;;;;;;;;;27.24;41.43;94017.66;5049622;28;7276;-60
2023/05/22 09:24:00;;;;;;;;;;;;;;;27.26;41.42;94017.13;5029699;28;7580;-59
2023/05/22 09:26:29;;;;;;;;;;;;;;;27.25;41.77;94010.84;5025068;28;9228;-59
2023/05/22 09:28:58;;;;;;;;;;;;;;;27.25;41.75;94013.63;5022642;28;7292;-60
2023/05/22 09:31:30;;;;;;;;;;;;;;;27.24;41.10;94017.66;5028733;28;9392;-60
2023/05/22 09:34:09;;;;;;;;;;;;;;;27.26;41.91;94017.88;5027963;28;9009;-60
2023/05/22 09:36:36;;;;;;;;;;;;;;;27.24;41.93;94017.66;5040589;28;7100;-60
2023/05/22 09:39:11;;;;;;;;;;;;;;;27.26;42.02;94015.13;5026159;28;9009;-60
2023/05/22 09:41:39;;;;;;;;;;;;;;;27.28;41.85;94015.31;5019368;28;9179;-60
2023/05/22 09:44:20;;;;;;;;;;;;;;;27.29;42.06;94016.06;5022320;28;7136;-60
2023/05/22 09:47:04;;;;;;;;;;;;;;;27.27;41.91;94008.34;5023934;28;7214;-60
2023/05/22 09:49:47;;;;;;;;;;;;;;;27.28;42.21;94015.31;5041758;28;9035;-60
2023/05/22 09:52:23;;;;;;;;;;;;;;;27.31;42.37;94013.53;5025678;28;8919;-60
2023/05/22 09:55:28;;;;;;;;;;;;;;;27.32;41.97;94015.00;5028927;28;9420;-60
2023/05/22 09:57:56;;;;;;;;;;;;;;;27.31;42.13;94011.50;4985957;28;8750;-60
2023/05/22 10:00:24;;;;;;;;;;;;;;;27.29;41.69;94022.34;5000316;28;7028;-60
2023/05/22 10:03:26;;;;;;;;;;;;;;;27.29;41.93;94008.53;4989724;28;7231;-60
2023/05/22 10:06:08;;;;;;;;;;;;;;;27.29;41.88;94016.81;4985844;28;7255;-60
2023/05/22 10:09:16;;;;;;;;;;;;;;;27.31;42.11;94008.00;4973042;28;8721;-60
2023/05/22 10:12:02;;;;;;;;;;;;;;;27.31;42.16;94006.00;4984038;28;9296;-60
2023/05/22 10:15:15;;;;;;;;;;;;;;;27.32;42.35;94013.00;4970745;28;7051;-60
2023/05/22 10:17:56;;;;;;;;;;;;;;;27.33;42.17;94003.44;4970166;28;8925;-60
2023/05/22 10:20:32;;;;;;;;;;;;;;;27.34;42.24;94002.16;4968843;28;9464;-60
2023/05/22 10:23:02;;;;;;;;;;;;;;;27.35;41.98;94005.66;4978437;28;9388;-60
2023/05/22 10:25:47;;;;;;;;;;;;;;;27.36;42.26;93993.38;4975022;28;7278;-60
2023/05/22 10:28:29;;;;;;;;;;;;;;;27.37;42.08;94001.13;4973313;28;7249;-60
2023/05/22 10:31:32;;;;;;;;;;;;;;;27.38;42.25;93999.84;4969340;28;7575;-60
2023/05/22 10:34:08;;;;;;;;;;;;;;;27.40;42.32;94000.06;4963873;28;9605;-60
2023/05/22 10:37:05;;;;;;;;;;;;;;;27.42;42.23;93996.78;4971265;28;7039;-60
2023/05/22 10:43:16;;;;;;;;;;;;;;;27.42;42.22;93986.47;5028375;28;7057;-60
2023/05/22 10:46:12;;;;;;;;;;;;;;;27.45;42.36;93984.63;5022606;28;7056;-59
2023/05/22 10:48:54;;;;;;;;;;;;;;;27.44;42.26;93983.91;5009591;28;9824;-60
2023/05/22 10:51:33;;;;;;;;;;;;;;;27.46;42.31;93980.63;5022505;28;7016;-60
2023/05/22 10:54:14;;;;;;;;;;;;;;;27.47;42.33;93977.31;5010600;28;6965;-60
2023/05/22 10:56:41;;;;;;;;;;;;;;;27.47;42.29;93979.34;5018104;28;7012;-60
2023/05/22 10:59:47;;;;;;;;;;;;;;;27.49;42.46;93980.28;5027005;28;8802;-60
2023/05/22 11:02:46;;;;;;;;;;;;;;;27.50;42.30;93973.50;4949190;28;7108;-60
2023/05/22 11:05:17;;;;;;;;;;;;;;;27.51;42.43;93972.19;4951444;28;7422;-60
2023/05/22 11:08:15;;;;;;;;;;;;;;;27.51;42.45;93966.69;4952679;28;8653;-60
2023/05/22 11:11:15;;;;;;;;;;;;;;;27.52;42.06;93973.69;4967513;28;7136;-60
2023/05/22 11:14:19;;;;;;;;;;;;;;;27.53;42.27;93969.66;4969575;28;7268;-60
2023/05/22 11:16:47;;;;;;;;;;;;;;;27.54;42.56;93962.84;4972003;28;7290;-60
2023/05/22 11:19:14;;;;;;;;;;;;;;;27.54;42.54;93965.63;4949664;28;7303;-60
2023/05/22 11:21:46;;;;;;;;;;;;;;;27.57;42.70;93961.06;4952508;28;8691;-60
2023/05/22 11:24:16;;;;;;;;;;;;;;;27.56;42.96;93960.31;4951938;28;7221;-60
2023/05/22 11:26:43;;;;;;;;;;;;;;;27.60;42.78;93957.22;4954709;28;7344;-60
2023/05/22 11:29:09;;;;;;;;;;;;;;;27.62;42.61;93955.41;4955626;28;8716;-60
2023/05/22 11:31:39;;;;;;;;;;;;;;;27.62;42.45;93960.91;4972200;28;8736;-60
2023/05/22 11:34:23;;;;;;;;;;;;;;;27.64;42.53;93952.13;4953995;28;7028;-60
2023/05/22 11:37:05;;;;;;;;;;;;;;;27.66;42.12;93954.34;4997616;28;6966;-60
2023/05/22 11:39:56;;;;;;;;;;;;;;;27.67;42.17;93955.81;4992084;28;7276;-60
2023/05/22 11:46:10;;;;;;;;;;;;;;;27.69;42.14;93940.19;4993704;28;7082;-60
2023/05/22 11:48:40;;;;;;;;;;;;;;;27.69;41.88;93954.00;4997334;28;8708;-61
2023/05/22 11:51:28;;;;;;;;;;;;;;;27.71;42.09;93945.19;5024400;28;8954;-60
2023/05/22 11:54:01;;;;;;;;;;;;;;;27.73;41.88;93950.94;5017689;28;8954;-60
2023/05/22 11:56:33;;;;;;;;;;;;;;;27.74;41.94;93941.34;5029965;28;7123;-60
2023/05/22 11:59:01;;;;;;;;;;;;;;;27.74;42.02;93944.84;5029804;28;7309;-60
2023/05/22 12:01:36;;;;;;;;;;;;;;;27.74;42.28;93938.59;5027064;28;7033;-60
2023/05/22 12:04:08;;;;;;;;;;;;;;;27.76;41.87;93938.78;5032448;28;7006;-60
2023/05/22 12:06:41;;;;;;;;;;;;;;;27.78;41.98;93948.03;5023304;28;7125;-60
2023/05/22 12:09:09;;;;;;;;;;;;;;;27.77;42.00;93938.28;5030729;28;7064;-60
2023/05/22 12:11:54;;;;;;;;;;;;;;;27.79;41.83;93932.94;5029889;28;7733;-60
2023/05/22 12:14:46;;;;;;;;;;;;;;;27.79;42.08;93938.47;5021849;28;7315;-60
2023/05/22 12:17:17;;;;;;;;;;;;;;;27.84;42.13;93934.09;5002016;28;9313;-60
2023/05/22 12:19:46;;;;;;;;;;;;;;;27.87;41.57;93936.53;5010233;28;7172;-60
2023/05/22 12:22:25;;;;;;;;;;;;;;;27.89;42.26;93930.47;4999660;28;7435;-60
2023/05/22 12:25:12;;;;;;;;;;;;;;;27.88;42.45;93926.97;5021990;28;8243;-60
2023/05/22 12:27:54;;;;;;;;;;;;;;;27.89;42.22;93933.22;5007138;28;9538;-60
2023/05/22 12:30:39;;;;;;;;;;;;;;;27.91;42.17;93933.41;5021756;28;7101;-60
2023/05/22 12:33:28;;;;;;;;;;;;;;;27.93;42.22;93926.09;5035002;28;7173;-60
2023/05/22 12:36:05;;;;;;;;;;;;;;;27.93;42.58;93925.34;5024459;28;7366;-60
2023/05/22 12:38:38;;;;;;;;;;;;;;;27.93;42.37;93928.09;5011457;28;7188;-60
2023/05/22 12:41:06;;;;;;;;;;;;;;;27.94;42.19;93924.81;5035632;28;9213;-60
2023/05/22 12:43:42;;;;;;;;;;;;;;;27.97;41.77;93934.81;5010519;28;7313;-60
2023/05/22 12:46:15;;;;;;;;;;;;;;;28.02;42.13;93938.72;5033064;28;7256;-60
2023/05/22 12:48:44;;;;;;;;;;;;;;;28.02;41.86;93928.41;5024530;28;8868;-60
2023/05/22 12:51:19;;;;;;;;;;;;;;;28.07;42.37;93926.81;5018736;28;7299;-60
2023/05/22 12:54:18;;;;;;;;;;;;;;;28.11;42.18;93932.75;5028054;28;7323;-60
2023/05/22 12:57:02;;;;;;;;;;;;;;;28.12;42.21;93937.72;5005931;28;7504;-60
2023/05/22 12:59:59;;;;;;;;;;;;;;;28.13;41.88;93932.94;5004471;28;7276;-60
2023/05/22 13:03:10;;;;;;;;;;;;;;;28.13;41.77;93925.41;5016049;28;6860;-60
2023/05/22 13:05:36;;;;;;;;;;;;;;;28.16;41.86;93929.84;4967789;28;7051;-60
2023/05/22 13:08:23;;;;;;;;;;;;;;;28.15;41.63;93928.38;4956649;28;7217;-60
2023/05/22 13:11:05;;;;;;;;;;;;;;;28.18;42.03;93915.47;4969219;28;7123;-60
2023/05/22 13:14:11;;;;;;;;;;;;;;;28.20;41.82;93915.69;4967558;28;7021;-60
2023/05/22 13:16:37;;;;;;;;;;;;;;;28.20;42.20;93913.66;4945445;29;9131;-60
2023/05/22 13:19:03;;;;;;;;;;;;;;;28.22;42.04;93915.88;4957041;28;8755;-60
2023/05/22 13:21:45;;;;;;;;;;;;;;;28.20;41.73;93912.91;4969086;28;9430;-60
2023/05/22 13:24:39;;;;;;;;;;;;;;;28.24;42.09;93908.53;4946641;28;7275;-60
2023/05/22 13:27:30;;;;;;;;;;;;;;;28.27;42.33;93906.72;4963806;28;7236;-60
2023/05/22 13:30:29;;;;;;;;;;;;;;;28.27;42.07;93915.75;4967296;28;8700;-60
2023/05/22 13:33:13;;;;;;;;;;;;;;;28.28;41.90;93916.47;4958608;28;8718;-60
2023/05/22 13:36:13;;;;;;;;;;;;;;;28.30;42.52;93914.66;4950303;28;7261;-60
2023/05/22 13:39:17;;;;;;;;;;;;;;;28.32;42.28;93912.09;4877817;29;7410;-60
2023/05/22 13:42:13;;;;;;;;;;;;;;;28.33;42.03;93905.31;4921133;28;7325;-60
2023/05/22 13:44:51;;;;;;;;;;;;;;;28.30;42.22;93897.31;4920357;29;7164;-60
2023/05/22 13:47:17;;;;;;;;;;;;;;;28.36;42.18;93895.19;4939944;28;8952;-60
2023/05/22 13:49:47;;;;;;;;;;;;;;;28.39;42.14;93894.09;4938676;28;7490;-60
2023/05/22 13:52:14;;;;;;;;;;;;;;;28.40;42.22;93890.06;4934283;28;7338;-60
2023/05/22 13:54:45;;;;;;;;;;;;;;;28.43;42.21;93883.41;4923884;28;7540;-60
2023/05/22 13:57:11;;;;;;;;;;;;;;;28.42;42.03;93881.94;4937522;28;9048;-60
2023/05/22 13:59:46;;;;;;;;;;;;;;;28.45;41.68;93878.09;4928468;28;7284;-60
2023/05/22 14:02:27;;;;;;;;;;;;;;;28.48;41.93;93876.25;4936296;28;9418;-60
2023/05/22 14:05:01;;;;;;;;;;;;;;;28.50;42.29;93877.22;4940280;28;7019;-60
2023/05/22 14:07:44;;;;;;;;;;;;;;;28.52;42.01;93882.19;4924436;28;9205;-60
2023/05/22 14:10:13;;;;;;;;;;;;;;;28.52;42.58;93880.16;4919358;28;8680;-59
2023/05/22 14:12:45;;;;;;;;;;;;;;;28.52;41.75;93871.13;4922212;28;7030;-60
2023/05/22 14:15:11;;;;;;;;;;;;;;;28.55;41.76;93879.09;4958208;28;7228;-60